sensor_id;sensor_type;location;lat;lon;timestamp;P1;durP1;ratioP1;P2;durP2;ratioP2
16520;SDS011;8373;48.110;11.522;2023-01-16T00:01:22;6.83;;;2.73;;
16520;SDS011;8373;48.110;11.522;2023-01-16T00:03:50;11.67;;;3.37;;
16520;SDS011;8373;48.110;11.522;2023-01-16T00:06:17;10.00;;;3.23;;
16520;SDS011;8373;48.110;11.522;2023-01-16T00:08:44;6.23;;;2.60;;
16520;SDS011;8373;48.110;11.522;2023-01-16T00:11:12;6.03;;;2.30;;
16520;SDS011;8373;48.110;11.522;2023-01-16T00:13:39;7.67;;;3.03;;
16520;SDS011;8373;48.110;11.522;2023-01-16T00:16:07;14.33;;;2.57;;
16520;SDS011;8373;48.110;11.522;2023-01-16T00:18:34;10.90;;;3.20;;
16520;SDS011;8373;48.110;11.522;2023-01-16T00:21:01;11.73;;;2.93;;
16520;SDS011;8373;48.110;11.522;2023-01-16T00:23:28;16.37;;;3.00;;
16520;SDS011;8373;48.110;11.522;2023-01-16T00:25:55;8.17;;;3.00;;
16520;SDS011;8373;48.110;11.522;2023-01-16T00:28:23;8.90;;;2.60;;
16520;SDS011;8373;48.110;11.522;2023-01-16T00:30:50;7.47;;;2.90;;
16520;SDS011;8373;48.110;11.522;2023-01-16T00:33:17;7.80;;;3.23;;
16520;SDS011;8373;48.110;11.522;2023-01-16T00:35:45;15.53;;;3.47;;
16520;SDS011;8373;48.110;11.522;2023-01-16T00:38:12;9.00;;;3.43;;
16520;SDS011;8373;48.110;11.522;2023-01-16T00:40:39;9.97;;;3.03;;
16520;SDS011;8373;48.110;11.522;2023-01-16T00:43:06;10.63;;;3.20;;
16520;SDS011;8373;48.110;11.522;2023-01-16T00:45:35;8.73;;;2.60;;
16520;SDS011;8373;48.110;11.522;2023-01-16T00:48:02;8.97;;;2.80;;
16520;SDS011;8373;48.110;11.522;2023-01-16T00:50:30;9.00;;;2.80;;
16520;SDS011;8373;48.110;11.522;2023-01-16T00:52:57;6.80;;;2.70;;
16520;SDS011;8373;48.110;11.522;2023-01-16T00:55:24;7.97;;;2.63;;
16520;SDS011;8373;48.110;11.522;2023-01-16T00:57:50;9.17;;;3.47;;
16520;SDS011;8373;48.110;11.522;2023-01-16T01:00:18;7.77;;;3.23;;
16520;SDS011;8373;48.110;11.522;2023-01-16T01:02:51;11.40;;;3.20;;
16520;SDS011;8373;48.110;11.522;2023-01-16T01:05:18;7.30;;;2.93;;
16520;SDS011;8373;48.110;11.522;2023-01-16T01:07:45;12.20;;;3.60;;
16520;SDS011;8373;48.110;11.522;2023-01-16T01:10:12;8.70;;;2.80;;
16520;SDS011;8373;48.110;11.522;2023-01-16T01:12:39;7.20;;;2.80;;
16520;SDS011;8373;48.110;11.522;2023-01-16T01:15:06;9.80;;;3.07;;
16520;SDS011;8373;48.110;11.522;2023-01-16T01:17:34;7.37;;;2.70;;
16520;SDS011;8373;48.110;11.522;2023-01-16T01:20:02;7.40;;;2.90;;
16520;SDS011;8373;48.110;11.522;2023-01-16T01:22:30;10.03;;;2.70;;
16520;SDS011;8373;48.110;11.522;2023-01-16T01:24:57;6.97;;;2.57;;
16520;SDS011;8373;48.110;11.522;2023-01-16T01:27:24;6.97;;;2.63;;
16520;SDS011;8373;48.110;11.522;2023-01-16T01:29:51;8.43;;;2.83;;
16520;SDS011;8373;48.110;11.522;2023-01-16T01:32:18;12.17;;;2.80;;
16520;SDS011;8373;48.110;11.522;2023-01-16T01:34:45;7.00;;;2.80;;
16520;SDS011;8373;48.110;11.522;2023-01-16T01:37:13;6.87;;;2.90;;
16520;SDS011;8373;48.110;11.522;2023-01-16T01:39:40;10.43;;;2.60;;
16520;SDS011;8373;48.110;11.522;2023-01-16T01:42:09;6.40;;;2.63;;
16520;SDS011;8373;48.110;11.522;2023-01-16T01:44:54;8.20;;;2.63;;
16520;SDS011;8373;48.110;11.522;2023-01-16T01:47:23;6.37;;;2.40;;
16520;SDS011;8373;48.110;11.522;2023-01-16T01:49:54;9.20;;;2.40;;
16520;SDS011;8373;48.110;11.522;2023-01-16T01:52:24;9.57;;;2.60;;
16520;SDS011;8373;48.110;11.522;2023-01-16T01:54:55;10.10;;;2.80;;
16520;SDS011;8373;48.110;11.522;2023-01-16T01:57:27;7.27;;;2.70;;
16520;SDS011;8373;48.110;11.522;2023-01-16T01:59:56;5.97;;;2.27;;
16520;SDS011;8373;48.110;11.522;2023-01-16T02:02:29;6.70;;;2.33;;
16520;SDS011;8373;48.110;11.522;2023-01-16T02:04:59;8.63;;;3.10;;
16520;SDS011;8373;48.110;11.522;2023-01-16T02:07:31;7.40;;;2.50;;
16520;SDS011;8373;48.110;11.522;2023-01-16T02:10:01;7.13;;;2.70;;
16520;SDS011;8373;48.110;11.522;2023-01-16T02:12:35;7.03;;;1.97;;
16520;SDS011;8373;48.110;11.522;2023-01-16T02:15:02;12.30;;;2.80;;
16520;SDS011;8373;48.110;11.522;2023-01-16T02:17:30;6.80;;;2.50;;
16520;SDS011;8373;48.110;11.522;2023-01-16T02:20:18;6.07;;;2.20;;
16520;SDS011;8373;48.110;11.522;2023-01-16T02:23:12;7.20;;;2.40;;
16520;SDS011;8373;48.110;11.522;2023-01-16T02:32:21;15.67;;;2.60;;
16520;SDS011;8373;48.110;11.522;2023-01-16T02:35:06;5.40;;;2.00;;
16520;SDS011;8373;48.110;11.522;2023-01-16T02:37:47;7.57;;;2.47;;
16520;SDS011;8373;48.110;11.522;2023-01-16T02:40:27;9.03;;;2.30;;
16520;SDS011;8373;48.110;11.522;2023-01-16T02:43:06;5.50;;;2.03;;
16520;SDS011;8373;48.110;11.522;2023-01-16T02:45:42;6.13;;;2.30;;
16520;SDS011;8373;48.110;11.522;2023-01-16T02:48:18;5.50;;;2.17;;
16520;SDS011;8373;48.110;11.522;2023-01-16T02:50:52;10.60;;;2.53;;
16520;SDS011;8373;48.110;11.522;2023-01-16T02:53:26;5.83;;;2.30;;
16520;SDS011;8373;48.110;11.522;2023-01-16T02:55:55;7.70;;;2.13;;
16520;SDS011;8373;48.110;11.522;2023-01-16T02:58:28;9.23;;;2.47;;
16520;SDS011;8373;48.110;11.522;2023-01-16T03:00:59;7.07;;;2.17;;
16520;SDS011;8373;48.110;11.522;2023-01-16T03:03:41;6.10;;;2.30;;
16520;SDS011;8373;48.110;11.522;2023-01-16T03:09:22;8.93;;;2.73;;
16520;SDS011;8373;48.110;11.522;2023-01-16T03:12:02;9.07;;;2.90;;
16520;SDS011;8373;48.110;11.522;2023-01-16T03:14:51;9.47;;;3.10;;
16520;SDS011;8373;48.110;11.522;2023-01-16T03:17:30;9.23;;;3.20;;
16520;SDS011;8373;48.110;11.522;2023-01-16T03:20:12;14.23;;;3.20;;
16520;SDS011;8373;48.110;11.522;2023-01-16T03:22:52;7.10;;;3.10;;
16520;SDS011;8373;48.110;11.522;2023-01-16T03:25:28;7.40;;;3.00;;
16520;SDS011;8373;48.110;11.522;2023-01-16T03:28:03;7.57;;;2.67;;
16520;SDS011;8373;48.110;11.522;2023-01-16T03:30:39;6.90;;;2.87;;
16520;SDS011;8373;48.110;11.522;2023-01-16T03:33:16;6.93;;;2.90;;
16520;SDS011;8373;48.110;11.522;2023-01-16T03:35:52;14.30;;;3.00;;
16520;SDS011;8373;48.110;11.522;2023-01-16T03:38:25;8.00;;;3.23;;
16520;SDS011;8373;48.110;11.522;2023-01-16T03:40:54;9.47;;;2.93;;
16520;SDS011;8373;48.110;11.522;2023-01-16T03:43:26;7.73;;;2.90;;
16520;SDS011;8373;48.110;11.522;2023-01-16T03:45:57;7.50;;;2.60;;
16520;SDS011;8373;48.110;11.522;2023-01-16T03:48:28;8.30;;;3.03;;
16520;SDS011;8373;48.110;11.522;2023-01-16T03:51:05;8.37;;;3.23;;
16520;SDS011;8373;48.110;11.522;2023-01-16T03:53:33;7.80;;;3.07;;
16520;SDS011;8373;48.110;11.522;2023-01-16T03:56:07;7.97;;;3.10;;
16520;SDS011;8373;48.110;11.522;2023-01-16T03:58:40;9.87;;;3.40;;
16520;SDS011;8373;48.110;11.522;2023-01-16T04:01:11;10.10;;;2.90;;
16520;SDS011;8373;48.110;11.522;2023-01-16T04:03:47;9.97;;;3.47;;
16520;SDS011;8373;48.110;11.522;2023-01-16T04:06:24;6.70;;;2.93;;
16520;SDS011;8373;48.110;11.522;2023-01-16T04:08:57;7.47;;;3.27;;
16520;SDS011;8373;48.110;11.522;2023-01-16T04:11:27;12.80;;;3.10;;
16520;SDS011;8373;48.110;11.522;2023-01-16T04:13:56;7.53;;;3.23;;
16520;SDS011;8373;48.110;11.522;2023-01-16T04:16:24;7.10;;;3.30;;
16520;SDS011;8373;48.110;11.522;2023-01-16T04:18:51;13.50;;;3.43;;
16520;SDS011;8373;48.110;11.522;2023-01-16T04:21:25;7.80;;;3.50;;
16520;SDS011;8373;48.110;11.522;2023-01-16T04:23:54;13.30;;;3.33;;
16520;SDS011;8373;48.110;11.522;2023-01-16T04:26:24;7.70;;;3.20;;
16520;SDS011;8373;48.110;11.522;2023-01-16T04:28:51;8.77;;;3.10;;
16520;SDS011;8373;48.110;11.522;2023-01-16T04:31:20;11.50;;;3.10;;
16520;SDS011;8373;48.110;11.522;2023-01-16T04:33:48;9.60;;;3.30;;
16520;SDS011;8373;48.110;11.522;2023-01-16T04:36:15;6.67;;;2.70;;
16520;SDS011;8373;48.110;11.522;2023-01-16T04:38:43;10.07;;;3.57;;
16520;SDS011;8373;48.110;11.522;2023-01-16T04:41:10;10.00;;;3.00;;
16520;SDS011;8373;48.110;11.522;2023-01-16T04:43:37;9.00;;;3.17;;
16520;SDS011;8373;48.110;11.522;2023-01-16T04:46:04;7.40;;;2.90;;
16520;SDS011;8373;48.110;11.522;2023-01-16T04:48:31;9.43;;;4.07;;
16520;SDS011;8373;48.110;11.522;2023-01-16T04:50:58;9.47;;;3.67;;
16520;SDS011;8373;48.110;11.522;2023-01-16T04:53:25;9.73;;;3.27;;
16520;SDS011;8373;48.110;11.522;2023-01-16T04:55:53;7.77;;;3.00;;
16520;SDS011;8373;48.110;11.522;2023-01-16T04:58:20;8.77;;;3.90;;
16520;SDS011;8373;48.110;11.522;2023-01-16T05:00:47;17.53;;;4.47;;
16520;SDS011;8373;48.110;11.522;2023-01-16T05:03:14;6.97;;;2.40;;
16520;SDS011;8373;48.110;11.522;2023-01-16T05:05:42;8.40;;;2.87;;
16520;SDS011;8373;48.110;11.522;2023-01-16T05:08:09;8.90;;;3.23;;
16520;SDS011;8373;48.110;11.522;2023-01-16T05:10:41;18.10;;;3.30;;
16520;SDS011;8373;48.110;11.522;2023-01-16T05:13:10;8.17;;;3.50;;
16520;SDS011;8373;48.110;11.522;2023-01-16T05:15:37;9.17;;;3.27;;
16520;SDS011;8373;48.110;11.522;2023-01-16T05:18:03;10.10;;;3.30;;
16520;SDS011;8373;48.110;11.522;2023-01-16T05:20:30;7.90;;;2.60;;
16520;SDS011;8373;48.110;11.522;2023-01-16T05:22:57;7.97;;;3.43;;
16520;SDS011;8373;48.110;11.522;2023-01-16T05:25:24;7.30;;;3.40;;
16520;SDS011;8373;48.110;11.522;2023-01-16T05:27:51;6.60;;;3.00;;
16520;SDS011;8373;48.110;11.522;2023-01-16T05:30:19;7.00;;;3.57;;
16520;SDS011;8373;48.110;11.522;2023-01-16T05:32:46;9.77;;;3.47;;
16520;SDS011;8373;48.110;11.522;2023-01-16T05:35:13;9.87;;;3.63;;
16520;SDS011;8373;48.110;11.522;2023-01-16T05:37:41;15.23;;;3.17;;
16520;SDS011;8373;48.110;11.522;2023-01-16T05:40:08;12.03;;;3.40;;
16520;SDS011;8373;48.110;11.522;2023-01-16T05:42:36;7.13;;;3.10;;
16520;SDS011;8373;48.110;11.522;2023-01-16T05:45:03;9.47;;;3.53;;
16520;SDS011;8373;48.110;11.522;2023-01-16T05:47:32;9.13;;;3.10;;
16520;SDS011;8373;48.110;11.522;2023-01-16T05:49:59;7.50;;;3.30;;
16520;SDS011;8373;48.110;11.522;2023-01-16T05:52:26;7.40;;;2.97;;
16520;SDS011;8373;48.110;11.522;2023-01-16T05:54:53;7.10;;;3.27;;
16520;SDS011;8373;48.110;11.522;2023-01-16T05:57:21;7.90;;;2.80;;
16520;SDS011;8373;48.110;11.522;2023-01-16T05:59:49;8.63;;;2.90;;
16520;SDS011;8373;48.110;11.522;2023-01-16T06:02:16;6.50;;;2.90;;
16520;SDS011;8373;48.110;11.522;2023-01-16T06:04:44;6.93;;;3.30;;
16520;SDS011;8373;48.110;11.522;2023-01-16T06:07:11;12.70;;;3.40;;
16520;SDS011;8373;48.110;11.522;2023-01-16T06:09:39;7.60;;;3.03;;
16520;SDS011;8373;48.110;11.522;2023-01-16T06:12:06;7.50;;;3.33;;
16520;SDS011;8373;48.110;11.522;2023-01-16T06:14:34;7.70;;;3.27;;
16520;SDS011;8373;48.110;11.522;2023-01-16T06:17:01;7.00;;;3.00;;
16520;SDS011;8373;48.110;11.522;2023-01-16T06:19:28;6.70;;;3.30;;
16520;SDS011;8373;48.110;11.522;2023-01-16T06:21:56;14.30;;;3.80;;
16520;SDS011;8373;48.110;11.522;2023-01-16T06:24:23;7.33;;;3.30;;
16520;SDS011;8373;48.110;11.522;2023-01-16T06:26:50;10.37;;;3.70;;
16520;SDS011;8373;48.110;11.522;2023-01-16T06:29:17;12.43;;;3.30;;
16520;SDS011;8373;48.110;11.522;2023-01-16T06:31:44;6.47;;;2.97;;
16520;SDS011;8373;48.110;11.522;2023-01-16T06:34:11;7.60;;;2.70;;
16520;SDS011;8373;48.110;11.522;2023-01-16T06:36:38;8.90;;;3.40;;
16520;SDS011;8373;48.110;11.522;2023-01-16T06:39:07;8.20;;;3.00;;
16520;SDS011;8373;48.110;11.522;2023-01-16T06:41:36;10.13;;;3.43;;
16520;SDS011;8373;48.110;11.522;2023-01-16T06:44:03;14.23;;;3.57;;
16520;SDS011;8373;48.110;11.522;2023-01-16T06:46:30;8.03;;;2.93;;
16520;SDS011;8373;48.110;11.522;2023-01-16T06:48:57;7.40;;;3.30;;
16520;SDS011;8373;48.110;11.522;2023-01-16T06:51:24;6.10;;;3.00;;
16520;SDS011;8373;48.110;11.522;2023-01-16T06:53:51;11.40;;;3.03;;
16520;SDS011;8373;48.110;11.522;2023-01-16T06:56:19;14.33;;;3.87;;
16520;SDS011;8373;48.110;11.522;2023-01-16T06:58:46;7.60;;;3.43;;
16520;SDS011;8373;48.110;11.522;2023-01-16T07:01:13;9.80;;;3.83;;
16520;SDS011;8373;48.110;11.522;2023-01-16T07:03:40;7.77;;;3.20;;
16520;SDS011;8373;48.110;11.522;2023-01-16T07:06:07;7.73;;;2.50;;
16520;SDS011;8373;48.110;11.522;2023-01-16T07:08:33;10.67;;;2.90;;
16520;SDS011;8373;48.110;11.522;2023-01-16T07:11:00;12.03;;;4.57;;
16520;SDS011;8373;48.110;11.522;2023-01-16T07:13:29;18.90;;;4.73;;
16520;SDS011;8373;48.110;11.522;2023-01-16T07:15:56;13.27;;;3.90;;
16520;SDS011;8373;48.110;11.522;2023-01-16T07:18:42;14.57;;;3.57;;
16520;SDS011;8373;48.110;11.522;2023-01-16T07:21:27;15.50;;;3.40;;
16520;SDS011;8373;48.110;11.522;2023-01-16T07:24:14;8.90;;;3.20;;
16520;SDS011;8373;48.110;11.522;2023-01-16T07:26:44;9.83;;;3.30;;
16520;SDS011;8373;48.110;11.522;2023-01-16T07:29:16;8.43;;;3.00;;
16520;SDS011;8373;48.110;11.522;2023-01-16T07:31:43;10.80;;;3.30;;
16520;SDS011;8373;48.110;11.522;2023-01-16T07:34:10;14.80;;;3.40;;
16520;SDS011;8373;48.110;11.522;2023-01-16T07:36:37;39.80;;;4.50;;
16520;SDS011;8373;48.110;11.522;2023-01-16T07:39:04;26.77;;;3.70;;
16520;SDS011;8373;48.110;11.522;2023-01-16T07:41:31;30.50;;;3.90;;
16520;SDS011;8373;48.110;11.522;2023-01-16T07:43:58;24.60;;;3.73;;
16520;SDS011;8373;48.110;11.522;2023-01-16T07:46:26;32.93;;;4.53;;
16520;SDS011;8373;48.110;11.522;2023-01-16T07:48:53;49.40;;;5.37;;
16520;SDS011;8373;48.110;11.522;2023-01-16T07:51:21;30.57;;;4.97;;
16520;SDS011;8373;48.110;11.522;2023-01-16T07:53:49;21.70;;;4.23;;
16520;SDS011;8373;48.110;11.522;2023-01-16T07:56:16;14.53;;;2.93;;
16520;SDS011;8373;48.110;11.522;2023-01-16T07:58:43;16.53;;;3.90;;
16520;SDS011;8373;48.110;11.522;2023-01-16T08:01:10;16.43;;;3.57;;
16520;SDS011;8373;48.110;11.522;2023-01-16T08:03:38;9.77;;;3.47;;
16520;SDS011;8373;48.110;11.522;2023-01-16T08:06:05;11.53;;;3.30;;
16520;SDS011;8373;48.110;11.522;2023-01-16T08:08:33;10.93;;;3.23;;
16520;SDS011;8373;48.110;11.522;2023-01-16T08:11:00;14.63;;;3.20;;
16520;SDS011;8373;48.110;11.522;2023-01-16T08:13:49;8.23;;;2.80;;
16520;SDS011;8373;48.110;11.522;2023-01-16T08:16:16;12.73;;;3.50;;
16520;SDS011;8373;48.110;11.522;2023-01-16T08:18:44;37.43;;;5.83;;
16520;SDS011;8373;48.110;11.522;2023-01-16T08:21:13;17.43;;;3.63;;
16520;SDS011;8373;48.110;11.522;2023-01-16T08:23:42;17.23;;;3.67;;
16520;SDS011;8373;48.110;11.522;2023-01-16T08:26:09;14.00;;;3.70;;
16520;SDS011;8373;48.110;11.522;2023-01-16T08:28:37;15.30;;;4.27;;
16520;SDS011;8373;48.110;11.522;2023-01-16T08:31:04;12.43;;;3.30;;
16520;SDS011;8373;48.110;11.522;2023-01-16T08:33:33;15.43;;;3.57;;
16520;SDS011;8373;48.110;11.522;2023-01-16T08:36:02;19.40;;;5.40;;
16520;SDS011;8373;48.110;11.522;2023-01-16T08:38:29;15.17;;;3.93;;
16520;SDS011;8373;48.110;11.522;2023-01-16T08:40:56;15.70;;;3.23;;
16520;SDS011;8373;48.110;11.522;2023-01-16T08:43:23;17.90;;;3.97;;
16520;SDS011;8373;48.110;11.522;2023-01-16T08:46:10;10.10;;;3.77;;
16520;SDS011;8373;48.110;11.522;2023-01-16T08:49:01;8.77;;;3.73;;
16520;SDS011;8373;48.110;11.522;2023-01-16T08:51:47;12.10;;;4.10;;
16520;SDS011;8373;48.110;11.522;2023-01-16T08:54:15;12.03;;;4.43;;
16520;SDS011;8373;48.110;11.522;2023-01-16T08:56:42;8.90;;;4.00;;
16520;SDS011;8373;48.110;11.522;2023-01-16T08:59:09;13.57;;;4.27;;
16520;SDS011;8373;48.110;11.522;2023-01-16T09:01:36;9.00;;;3.43;;
16520;SDS011;8373;48.110;11.522;2023-01-16T09:04:03;14.93;;;3.97;;
16520;SDS011;8373;48.110;11.522;2023-01-16T09:06:30;13.17;;;3.90;;
16520;SDS011;8373;48.110;11.522;2023-01-16T09:09:02;10.30;;;4.60;;
16520;SDS011;8373;48.110;11.522;2023-01-16T09:11:29;9.20;;;3.90;;
16520;SDS011;8373;48.110;11.522;2023-01-16T09:14:13;13.67;;;4.27;;
16520;SDS011;8373;48.110;11.522;2023-01-16T09:16:40;9.93;;;4.60;;
16520;SDS011;8373;48.110;11.522;2023-01-16T09:19:07;9.10;;;3.87;;
16520;SDS011;8373;48.110;11.522;2023-01-16T09:21:34;10.40;;;4.00;;
16520;SDS011;8373;48.110;11.522;2023-01-16T09:24:03;11.90;;;4.63;;
16520;SDS011;8373;48.110;11.522;2023-01-16T09:26:30;8.23;;;3.60;;
16520;SDS011;8373;48.110;11.522;2023-01-16T09:28:57;8.30;;;3.87;;
16520;SDS011;8373;48.110;11.522;2023-01-16T09:31:24;12.03;;;4.60;;
16520;SDS011;8373;48.110;11.522;2023-01-16T09:33:51;8.80;;;4.00;;
16520;SDS011;8373;48.110;11.522;2023-01-16T09:36:19;9.27;;;4.57;;
16520;SDS011;8373;48.110;11.522;2023-01-16T09:38:46;11.50;;;4.20;;
16520;SDS011;8373;48.110;11.522;2023-01-16T09:41:15;9.77;;;4.60;;
16520;SDS011;8373;48.110;11.522;2023-01-16T09:44:04;15.03;;;4.90;;
16520;SDS011;8373;48.110;11.522;2023-01-16T09:46:35;12.47;;;4.77;;
16520;SDS011;8373;48.110;11.522;2023-01-16T09:49:06;11.27;;;5.27;;
16520;SDS011;8373;48.110;11.522;2023-01-16T09:51:42;34.77;;;6.50;;
16520;SDS011;8373;48.110;11.522;2023-01-16T09:54:35;23.17;;;4.93;;
16520;SDS011;8373;48.110;11.522;2023-01-16T09:57:24;16.63;;;5.00;;
16520;SDS011;8373;48.110;11.522;2023-01-16T10:00:13;18.07;;;4.80;;
16520;SDS011;8373;48.110;11.522;2023-01-16T10:02:42;12.60;;;4.40;;
16520;SDS011;8373;48.110;11.522;2023-01-16T10:05:10;17.60;;;5.03;;
16520;SDS011;8373;48.110;11.522;2023-01-16T10:07:45;22.57;;;4.70;;
16520;SDS011;8373;48.110;11.522;2023-01-16T10:10:19;13.20;;;5.23;;
16520;SDS011;8373;48.110;11.522;2023-01-16T10:13:01;18.10;;;4.97;;
16520;SDS011;8373;48.110;11.522;2023-01-16T10:15:38;11.43;;;4.40;;
16520;SDS011;8373;48.110;11.522;2023-01-16T10:18:15;12.07;;;5.73;;
16520;SDS011;8373;48.110;11.522;2023-01-16T10:20:54;10.83;;;4.33;;
16520;SDS011;8373;48.110;11.522;2023-01-16T10:23:35;9.73;;;4.43;;
16520;SDS011;8373;48.110;11.522;2023-01-16T10:26:13;9.90;;;4.80;;
16520;SDS011;8373;48.110;11.522;2023-01-16T10:28:49;10.23;;;5.00;;
16520;SDS011;8373;48.110;11.522;2023-01-16T10:31:22;12.87;;;4.57;;
16520;SDS011;8373;48.110;11.522;2023-01-16T10:33:54;10.27;;;4.47;;
16520;SDS011;8373;48.110;11.522;2023-01-16T10:36:26;9.77;;;4.70;;
16520;SDS011;8373;48.110;11.522;2023-01-16T10:38:56;10.23;;;4.90;;
16520;SDS011;8373;48.110;11.522;2023-01-16T10:41:26;11.47;;;4.47;;
16520;SDS011;8373;48.110;11.522;2023-01-16T10:44:22;11.50;;;4.23;;
16520;SDS011;8373;48.110;11.522;2023-01-16T10:47:13;9.30;;;4.10;;
16520;SDS011;8373;48.110;11.522;2023-01-16T10:49:59;8.70;;;4.30;;
16520;SDS011;8373;48.110;11.522;2023-01-16T10:52:26;11.90;;;4.50;;
16520;SDS011;8373;48.110;11.522;2023-01-16T10:54:54;20.23;;;4.50;;
16520;SDS011;8373;48.110;11.522;2023-01-16T10:57:23;9.07;;;4.20;;
16520;SDS011;8373;48.110;11.522;2023-01-16T10:59:52;13.40;;;4.83;;
16520;SDS011;8373;48.110;11.522;2023-01-16T11:02:25;9.37;;;4.13;;
16520;SDS011;8373;48.110;11.522;2023-01-16T11:04:55;10.07;;;4.50;;
16520;SDS011;8373;48.110;11.522;2023-01-16T11:07:24;10.27;;;4.20;;
16520;SDS011;8373;48.110;11.522;2023-01-16T11:09:54;22.60;;;4.80;;
16520;SDS011;8373;48.110;11.522;2023-01-16T11:12:22;9.43;;;4.43;;
16520;SDS011;8373;48.110;11.522;2023-01-16T11:15:14;13.90;;;4.30;;
16520;SDS011;8373;48.110;11.522;2023-01-16T11:18:02;10.23;;;4.27;;
16520;SDS011;8373;48.110;11.522;2023-01-16T11:20:46;8.87;;;4.13;;
16520;SDS011;8373;48.110;11.522;2023-01-16T11:23:18;15.20;;;4.37;;
16520;SDS011;8373;48.110;11.522;2023-01-16T11:25:47;12.30;;;4.47;;
16520;SDS011;8373;48.110;11.522;2023-01-16T11:28:17;9.93;;;4.13;;
16520;SDS011;8373;48.110;11.522;2023-01-16T11:30:48;9.97;;;4.00;;
16520;SDS011;8373;48.110;11.522;2023-01-16T11:33:20;8.47;;;4.10;;
16520;SDS011;8373;48.110;11.522;2023-01-16T11:35:51;9.57;;;4.20;;
16520;SDS011;8373;48.110;11.522;2023-01-16T11:38:20;8.53;;;3.67;;
16520;SDS011;8373;48.110;11.522;2023-01-16T11:40:48;9.83;;;3.93;;
16520;SDS011;8373;48.110;11.522;2023-01-16T11:43:21;10.10;;;4.07;;
16520;SDS011;8373;48.110;11.522;2023-01-16T11:46:19;8.10;;;3.70;;
16520;SDS011;8373;48.110;11.522;2023-01-16T11:49:04;9.60;;;4.37;;
16520;SDS011;8373;48.110;11.522;2023-01-16T11:51:41;14.93;;;4.17;;
16520;SDS011;8373;48.110;11.522;2023-01-16T11:54:11;10.13;;;4.13;;
16520;SDS011;8373;48.110;11.522;2023-01-16T11:59:29;11.17;;;3.80;;
16520;SDS011;8373;48.110;11.522;2023-01-16T12:02:18;9.77;;;4.00;;
16520;SDS011;8373;48.110;11.522;2023-01-16T12:05:13;10.73;;;4.10;;
16520;SDS011;8373;48.110;11.522;2023-01-16T12:08:11;9.40;;;4.13;;
16520;SDS011;8373;48.110;11.522;2023-01-16T12:10:47;8.57;;;3.93;;
16520;SDS011;8373;48.110;11.522;2023-01-16T12:13:25;12.93;;;3.90;;
16520;SDS011;8373;48.110;11.522;2023-01-16T12:16:18;11.03;;;4.63;;
16520;SDS011;8373;48.110;11.522;2023-01-16T12:18:58;12.33;;;4.27;;
16520;SDS011;8373;48.110;11.522;2023-01-16T12:21:37;8.93;;;3.90;;
16520;SDS011;8373;48.110;11.522;2023-01-16T12:24:21;10.50;;;4.40;;
16520;SDS011;8373;48.110;11.522;2023-01-16T12:27:02;12.60;;;4.07;;
16520;SDS011;8373;48.110;11.522;2023-01-16T12:29:42;10.67;;;4.70;;
16520;SDS011;8373;48.110;11.522;2023-01-16T12:35:21;10.30;;;3.73;;
16520;SDS011;8373;48.110;11.522;2023-01-16T12:38:12;10.70;;;3.80;;
16520;SDS011;8373;48.110;11.522;2023-01-16T12:40:52;7.77;;;3.40;;
16520;SDS011;8373;48.110;11.522;2023-01-16T12:43:59;11.57;;;3.47;;
16520;SDS011;8373;48.110;11.522;2023-01-16T12:46:51;8.30;;;3.40;;
16520;SDS011;8373;48.110;11.522;2023-01-16T12:49:34;10.20;;;3.60;;
16520;SDS011;8373;48.110;11.522;2023-01-16T12:52:21;9.73;;;4.00;;
16520;SDS011;8373;48.110;11.522;2023-01-16T12:55:07;10.40;;;4.00;;
16520;SDS011;8373;48.110;11.522;2023-01-16T12:57:51;15.47;;;4.43;;
16520;SDS011;8373;48.110;11.522;2023-01-16T13:00:29;9.37;;;4.10;;
16520;SDS011;8373;48.110;11.522;2023-01-16T13:03:08;12.50;;;4.63;;
16520;SDS011;8373;48.110;11.522;2023-01-16T13:05:39;21.20;;;5.00;;
16520;SDS011;8373;48.110;11.522;2023-01-16T13:08:13;13.53;;;4.83;;
16520;SDS011;8373;48.110;11.522;2023-01-16T13:10:46;12.30;;;5.40;;
16520;SDS011;8373;48.110;11.522;2023-01-16T13:13:36;11.90;;;3.70;;
16520;SDS011;8373;48.110;11.522;2023-01-16T13:16:08;9.40;;;4.03;;
16520;SDS011;8373;48.110;11.522;2023-01-16T13:18:42;9.90;;;3.80;;
16520;SDS011;8373;48.110;11.522;2023-01-16T13:21:13;8.87;;;4.20;;
16520;SDS011;8373;48.110;11.522;2023-01-16T13:23:50;10.03;;;4.03;;
16520;SDS011;8373;48.110;11.522;2023-01-16T13:26:25;17.97;;;4.70;;
16520;SDS011;8373;48.110;11.522;2023-01-16T13:28:56;13.00;;;4.57;;
16520;SDS011;8373;48.110;11.522;2023-01-16T13:31:31;10.23;;;5.03;;
16520;SDS011;8373;48.110;11.522;2023-01-16T13:34:02;9.07;;;4.40;;
16520;SDS011;8373;48.110;11.522;2023-01-16T13:40:06;9.67;;;4.43;;
16520;SDS011;8373;48.110;11.522;2023-01-16T13:42:50;11.47;;;4.90;;
16520;SDS011;8373;48.110;11.522;2023-01-16T13:45:27;10.37;;;4.10;;
16520;SDS011;8373;48.110;11.522;2023-01-16T13:48:14;17.13;;;5.03;;
16520;SDS011;8373;48.110;11.522;2023-01-16T13:50:45;12.00;;;4.57;;
16520;SDS011;8373;48.110;11.522;2023-01-16T13:53:20;8.70;;;3.63;;
16520;SDS011;8373;48.110;11.522;2023-01-16T13:55:49;8.93;;;3.90;;
16520;SDS011;8373;48.110;11.522;2023-01-16T13:58:26;9.37;;;3.53;;
16520;SDS011;8373;48.110;11.522;2023-01-16T14:00:57;10.03;;;3.27;;
16520;SDS011;8373;48.110;11.522;2023-01-16T14:03:25;12.30;;;3.47;;
16520;SDS011;8373;48.110;11.522;2023-01-16T14:05:54;10.80;;;3.33;;
16520;SDS011;8373;48.110;11.522;2023-01-16T14:08:45;7.07;;;2.93;;
16520;SDS011;8373;48.110;11.522;2023-01-16T14:11:38;8.10;;;3.00;;
16520;SDS011;8373;48.110;11.522;2023-01-16T14:14:28;7.13;;;3.03;;
16520;SDS011;8373;48.110;11.522;2023-01-16T14:20:35;10.13;;;3.87;;
16520;SDS011;8373;48.110;11.522;2023-01-16T14:23:13;10.03;;;3.50;;
16520;SDS011;8373;48.110;11.522;2023-01-16T14:26:00;8.73;;;3.07;;
16520;SDS011;8373;48.110;11.522;2023-01-16T14:28:29;9.50;;;3.20;;
16520;SDS011;8373;48.110;11.522;2023-01-16T14:30:57;8.20;;;3.10;;
16520;SDS011;8373;48.110;11.522;2023-01-16T14:33:24;7.60;;;3.23;;
16520;SDS011;8373;48.110;11.522;2023-01-16T14:35:54;9.00;;;4.00;;
16520;SDS011;8373;48.110;11.522;2023-01-16T14:38:24;10.10;;;4.50;;
16520;SDS011;8373;48.110;11.522;2023-01-16T14:40:54;10.93;;;3.80;;
16520;SDS011;8373;48.110;11.522;2023-01-16T14:44:01;15.70;;;3.67;;
16520;SDS011;8373;48.110;11.522;2023-01-16T14:46:58;13.27;;;3.50;;
16520;SDS011;8373;48.110;11.522;2023-01-16T14:49:58;11.93;;;3.97;;
16520;SDS011;8373;48.110;11.522;2023-01-16T14:52:57;10.63;;;4.23;;
16520;SDS011;8373;48.110;11.522;2023-01-16T14:56:12;12.50;;;4.27;;
16520;SDS011;8373;48.110;11.522;2023-01-16T14:58:48;9.13;;;3.97;;
16520;SDS011;8373;48.110;11.522;2023-01-16T15:01:24;11.63;;;4.43;;
16520;SDS011;8373;48.110;11.522;2023-01-16T15:04:11;9.37;;;3.60;;
16520;SDS011;8373;48.110;11.522;2023-01-16T15:06:40;11.57;;;3.90;;
16520;SDS011;8373;48.110;11.522;2023-01-16T15:09:13;8.50;;;3.60;;
16520;SDS011;8373;48.110;11.522;2023-01-16T15:11:44;10.10;;;4.37;;
16520;SDS011;8373;48.110;11.522;2023-01-16T15:14:18;12.00;;;4.27;;
16520;SDS011;8373;48.110;11.522;2023-01-16T15:17:01;9.13;;;4.27;;
16520;SDS011;8373;48.110;11.522;2023-01-16T15:19:55;35.93;;;6.93;;
16520;SDS011;8373;48.110;11.522;2023-01-16T15:22:45;13.70;;;4.97;;
16520;SDS011;8373;48.110;11.522;2023-01-16T15:25:20;11.07;;;4.80;;
16520;SDS011;8373;48.110;11.522;2023-01-16T15:27:58;11.00;;;3.80;;
16520;SDS011;8373;48.110;11.522;2023-01-16T15:30:35;8.63;;;3.70;;
16520;SDS011;8373;48.110;11.522;2023-01-16T15:33:03;11.90;;;3.93;;
16520;SDS011;8373;48.110;11.522;2023-01-16T15:36:17;12.50;;;4.20;;
16520;SDS011;8373;48.110;11.522;2023-01-16T15:38:47;11.73;;;4.00;;